createdAt,value
2023-04-28T00:00:13.921Z,997.21
2023-04-28T00:01:13.461Z,997.21
2023-04-28T00:02:13.659Z,997.15
2023-04-28T00:03:13.857Z,997.16
2023-04-28T00:04:13.585Z,997.15
2023-04-28T00:05:13.850Z,997.11
2023-04-28T00:06:13.131Z,997.13
2023-04-28T00:07:13.317Z,997.10
2023-04-28T00:08:13.749Z,997.08
2023-04-28T00:09:13.666Z,997.11
2023-04-28T00:10:13.793Z,997.12
2023-04-28T00:11:13.813Z,997.09
2023-04-28T00:12:13.991Z,997.14
2023-04-28T00:13:12.985Z,997.13
2023-04-28T00:14:13.551Z,997.15
2023-04-28T00:15:13.891Z,997.13
2023-04-28T00:16:17.689Z,997.10
2023-04-28T00:17:20.735Z,997.10
2023-04-28T00:18:13.963Z,997.09
2023-04-28T00:19:30.055Z,997.04
2023-04-28T00:20:13.087Z,996.96
2023-04-28T00:21:13.076Z,996.94
2023-04-28T00:22:18.252Z,996.94
2023-04-28T00:23:13.342Z,996.89
2023-04-28T00:24:13.550Z,996.87
2023-04-28T00:25:13.777Z,996.82
2023-04-28T00:26:15.460Z,996.82
2023-04-28T00:27:13.541Z,996.78
2023-04-28T00:28:18.359Z,996.76
2023-04-28T00:29:13.180Z,996.77
2023-04-28T00:30:13.042Z,996.73
2023-04-28T00:31:13.320Z,996.73
2023-04-28T00:32:13.581Z,996.73
2023-04-28T00:33:13.527Z,996.74
2023-04-28T00:34:13.655Z,996.76
2023-04-28T00:35:13.819Z,996.75
2023-04-28T00:36:13.877Z,996.71
2023-04-28T00:37:12.965Z,996.70
2023-04-28T00:38:13.070Z,996.68
2023-04-28T00:39:12.905Z,996.68
2023-04-28T00:40:12.779Z,996.71
2023-04-28T00:41:13.899Z,996.69
2023-04-28T00:42:12.941Z,996.71
2023-04-28T00:43:13.041Z,996.68
2023-04-28T00:44:13.074Z,996.66
2023-04-28T00:45:13.162Z,996.66
2023-04-28T00:46:13.515Z,996.62
2023-04-28T00:47:13.888Z,996.64
2023-04-28T00:48:13.235Z,996.66
2023-04-28T00:49:13.165Z,996.65
2023-04-28T00:50:14.528Z,996.64
2023-04-28T00:51:13.628Z,996.65
2023-04-28T00:52:13.837Z,996.63
2023-04-28T00:53:14.201Z,996.62
2023-04-28T00:54:13.418Z,996.56
2023-04-28T00:55:13.565Z,996.55
2023-04-28T00:56:13.491Z,996.52
2023-04-28T00:57:13.428Z,996.47
2023-04-28T00:58:13.383Z,996.47
2023-04-28T00:59:13.570Z,996.48
2023-04-28T01:00:13.551Z,996.50
2023-04-28T01:01:13.603Z,996.49
2023-04-28T01:02:13.980Z,996.45
2023-04-28T01:03:14.132Z,996.50
2023-04-28T01:04:15.315Z,996.51
2023-04-28T01:05:13.543Z,996.50
2023-04-28T01:06:13.763Z,996.48
2023-04-28T01:07:13.790Z,996.48
2023-04-28T01:08:13.824Z,996.49
2023-04-28T01:09:13.919Z,996.44
2023-04-28T01:10:13.326Z,996.43
2023-04-28T01:11:13.666Z,996.43
2023-04-28T01:12:13.456Z,996.42
2023-04-28T01:13:13.479Z,996.46
2023-04-28T01:14:13.742Z,996.45
2023-04-28T01:15:13.808Z,996.43
2023-04-28T01:16:14.093Z,996.43
2023-04-28T01:17:13.675Z,996.42
2023-04-28T01:18:13.650Z,996.41
2023-04-28T01:19:14.704Z,996.34
2023-04-28T01:20:13.792Z,996.36
2023-04-28T01:21:13.941Z,996.38
2023-04-28T01:22:12.848Z,996.41
2023-04-28T01:23:13.951Z,996.40
2023-04-28T01:24:13.090Z,996.40
2023-04-28T01:25:13.197Z,996.42
2023-04-28T01:26:13.473Z,996.37
2023-04-28T01:27:13.578Z,996.38
2023-04-28T01:28:13.551Z,996.41
2023-04-28T01:29:13.478Z,996.40
2023-04-28T01:30:13.474Z,996.41
2023-04-28T01:31:13.701Z,996.39
2023-04-28T01:32:13.626Z,996.42
2023-04-28T01:33:18.893Z,996.40
2023-04-28T01:34:13.132Z,996.38
2023-04-28T01:35:13.354Z,996.39
2023-04-28T01:36:13.336Z,996.37
2023-04-28T01:37:13.355Z,996.39
2023-04-28T01:38:13.410Z,996.38
2023-04-28T01:39:25.387Z,996.36
2023-04-28T01:40:13.814Z,996.33
2023-04-28T01:41:12.958Z,996.31
2023-04-28T01:42:13.162Z,996.29
2023-04-28T01:43:13.135Z,996.28
2023-04-28T01:44:13.434Z,996.26
2023-04-28T01:45:13.780Z,996.25
2023-04-28T01:46:13.854Z,996.25
2023-04-28T01:47:13.992Z,996.28
2023-04-28T01:48:13.224Z,996.29
2023-04-28T01:49:13.151Z,996.33
2023-04-28T01:50:13.166Z,996.27
2023-04-28T01:51:13.164Z,996.26
2023-04-28T01:52:13.638Z,996.32
2023-04-28T01:53:13.959Z,996.27
2023-04-28T01:54:13.087Z,996.24
2023-04-28T01:55:13.477Z,996.22
2023-04-28T01:56:13.737Z,996.23
2023-04-28T01:57:15.459Z,996.23
2023-04-28T01:58:13.675Z,996.24
2023-04-28T01:59:13.548Z,996.24
2023-04-28T02:00:13.733Z,996.22
2023-04-28T02:01:13.970Z,996.22
2023-04-28T02:02:13.394Z,996.24
2023-04-28T02:03:13.514Z,996.24
2023-04-28T02:04:14.117Z,996.20
2023-04-28T02:05:13.423Z,996.20
2023-04-28T02:06:13.798Z,996.20
2023-04-28T02:07:13.930Z,996.16
2023-04-28T02:08:12.927Z,996.18
2023-04-28T02:09:12.874Z,996.23
2023-04-28T02:10:13.939Z,996.25
2023-04-28T02:11:12.846Z,996.25
2023-04-28T02:12:13.765Z,996.25
2023-04-28T02:13:13.748Z,996.24
2023-04-28T02:14:13.991Z,996.23
2023-04-28T02:15:13.084Z,996.21
2023-04-28T02:16:13.051Z,996.25
2023-04-28T02:17:13.216Z,996.25
2023-04-28T02:18:13.118Z,996.29
2023-04-28T02:19:13.022Z,996.20
2023-04-28T02:20:13.000Z,996.28
2023-04-28T02:21:12.850Z,996.22
2023-04-28T02:22:13.714Z,996.20
2023-04-28T02:23:13.798Z,996.16
2023-04-28T02:24:13.889Z,996.19
2023-04-28T02:25:13.049Z,996.25
2023-04-28T02:26:12.974Z,996.25
2023-04-28T02:27:13.049Z,996.23
2023-04-28T02:28:13.017Z,996.19
2023-04-28T02:29:12.926Z,996.24
2023-04-28T02:30:12.993Z,996.19
2023-04-28T02:31:13.040Z,996.17
2023-04-28T02:32:12.956Z,996.18
2023-04-28T02:33:12.968Z,996.13
2023-04-28T02:34:13.340Z,996.13
2023-04-28T02:35:13.626Z,996.10
2023-04-28T02:36:13.717Z,996.08
2023-04-28T02:37:13.663Z,996.09
2023-04-28T02:38:13.711Z,996.06
2023-04-28T02:39:14.084Z,996.05
2023-04-28T02:40:12.947Z,996.00
2023-04-28T02:41:12.855Z,995.97
2023-04-28T02:42:14.181Z,996.00
2023-04-28T02:43:13.114Z,995.99
2023-04-28T02:44:13.121Z,995.94
2023-04-28T02:45:13.283Z,995.96
2023-04-28T02:46:13.246Z,995.98
2023-04-28T02:47:13.211Z,995.96
2023-04-28T02:48:13.371Z,995.95
2023-04-28T02:49:13.306Z,995.96
2023-04-28T02:50:13.530Z,995.96
2023-04-28T02:51:13.394Z,995.94
2023-04-28T02:52:13.649Z,995.97
2023-04-28T02:53:13.849Z,995.99
2023-04-28T02:54:13.940Z,995.98
2023-04-28T02:55:13.007Z,995.99
2023-04-28T02:56:12.997Z,996.02
2023-04-28T02:57:12.926Z,995.99
2023-04-28T02:58:12.837Z,996.02
2023-04-28T02:59:13.833Z,995.99
2023-04-28T03:00:13.762Z,996.02
2023-04-28T03:01:14.153Z,996.00
2023-04-28T03:02:14.460Z,995.97
2023-04-28T03:03:13.972Z,995.98
2023-04-28T03:04:13.568Z,995.96
2023-04-28T03:05:13.560Z,995.98
2023-04-28T03:06:14.720Z,996.00
2023-04-28T03:07:13.789Z,995.94
2023-04-28T03:08:13.820Z,995.92
2023-04-28T03:09:13.754Z,995.97
2023-04-28T03:10:13.584Z,995.96
2023-04-28T03:11:13.619Z,995.97
2023-04-28T03:12:13.641Z,995.97
2023-04-28T03:13:13.629Z,995.93
2023-04-28T03:14:13.642Z,995.95
2023-04-28T03:15:14.261Z,995.93
2023-04-28T03:16:13.495Z,995.94
2023-04-28T03:17:13.423Z,995.95
2023-04-28T03:18:13.362Z,995.95
2023-04-28T03:19:13.260Z,995.90
2023-04-28T03:20:13.325Z,995.91
2023-04-28T03:21:13.268Z,995.89
2023-04-28T03:22:13.612Z,995.91
2023-04-28T03:23:13.658Z,995.88
2023-04-28T03:24:13.673Z,995.87
2023-04-28T03:25:13.797Z,995.84
2023-04-28T03:26:13.704Z,995.81
2023-04-28T03:27:13.798Z,995.83
2023-04-28T03:28:13.744Z,995.80
2023-04-28T03:29:13.696Z,995.82
2023-04-28T03:30:13.643Z,995.79
2023-04-28T03:31:13.558Z,995.75
2023-04-28T03:32:13.512Z,995.77
2023-04-28T03:33:13.647Z,995.71
2023-04-28T03:34:13.842Z,995.76
2023-04-28T03:35:12.796Z,995.71
2023-04-28T03:36:13.599Z,995.71
2023-04-28T03:37:13.600Z,995.71
2023-04-28T03:38:13.533Z,995.68
2023-04-28T03:39:13.432Z,995.69
2023-04-28T03:40:13.419Z,995.70
2023-04-28T03:41:13.343Z,995.67
2023-04-28T03:42:13.382Z,995.65
2023-04-28T03:43:13.295Z,995.63
2023-04-28T03:44:13.355Z,995.65
2023-04-28T03:45:13.490Z,995.66
2023-04-28T03:46:13.631Z,995.63
2023-04-28T03:47:13.611Z,995.57
2023-04-28T03:48:13.509Z,995.59
2023-04-28T03:49:14.019Z,995.57
2023-04-28T03:50:13.181Z,995.54
2023-04-28T03:51:13.110Z,995.55
2023-04-28T03:52:13.006Z,995.54
2023-04-28T03:53:12.949Z,995.52
2023-04-28T03:54:12.874Z,995.49
2023-04-28T03:55:13.803Z,995.48
2023-04-28T03:56:13.946Z,995.47
2023-04-28T03:57:12.836Z,995.45
2023-04-28T03:58:14.106Z,995.40
2023-04-28T03:59:13.098Z,995.41
2023-04-28T04:00:13.193Z,995.39
2023-04-28T04:01:13.176Z,995.41
2023-04-28T04:02:13.540Z,995.41
2023-04-28T04:03:13.769Z,995.38
2023-04-28T04:04:13.078Z,995.39
2023-04-28T04:05:13.539Z,995.38
2023-04-28T04:06:13.612Z,995.38
2023-04-28T04:07:13.458Z,995.34
2023-04-28T04:08:14.511Z,995.33
2023-04-28T04:09:13.439Z,995.31
2023-04-28T04:10:13.406Z,995.32
2023-04-28T04:11:13.644Z,995.32
2023-04-28T04:12:13.500Z,995.33
2023-04-28T04:13:13.619Z,995.30
2023-04-28T04:14:13.606Z,995.30
2023-04-28T04:15:13.659Z,995.30
2023-04-28T04:16:14.048Z,995.29
2023-04-28T04:17:13.157Z,995.29
2023-04-28T04:18:13.028Z,995.28
2023-04-28T04:19:13.265Z,995.31
2023-04-28T04:20:13.317Z,995.30
2023-04-28T04:21:13.278Z,995.27
2023-04-28T04:22:13.400Z,995.22
2023-04-28T04:23:13.833Z,995.24
2023-04-28T04:24:13.831Z,995.19
2023-04-28T04:25:13.836Z,995.15
2023-04-28T04:26:13.798Z,995.13
2023-04-28T04:27:13.892Z,995.12
2023-04-28T04:28:12.964Z,995.07
2023-04-28T04:29:12.919Z,995.02
2023-04-28T04:30:12.742Z,995.01
2023-04-28T04:31:14.091Z,995.03
2023-04-28T04:32:13.491Z,994.98
2023-04-28T04:33:13.737Z,994.95
2023-04-28T04:34:14.417Z,994.93
2023-04-28T04:35:13.866Z,994.95
2023-04-28T04:36:13.871Z,994.99
2023-04-28T04:37:13.943Z,995.02
2023-04-28T04:38:12.849Z,994.97
2023-04-28T04:39:13.819Z,995.01
2023-04-28T04:40:13.658Z,994.94
2023-04-28T04:41:13.638Z,994.99
2023-04-28T04:42:23.424Z,994.94
2023-04-28T04:43:13.716Z,994.92
2023-04-28T04:44:14.379Z,994.90
2023-04-28T04:45:13.657Z,994.92
2023-04-28T04:46:13.839Z,994.92
2023-04-28T04:47:13.807Z,994.92
2023-04-28T04:48:13.698Z,994.91
2023-04-28T04:49:13.965Z,994.92
2023-04-28T04:50:12.829Z,994.85
2023-04-28T04:51:13.978Z,994.83
2023-04-28T04:52:13.440Z,994.80
2023-04-28T04:53:16.172Z,994.80
2023-04-28T04:54:13.590Z,994.84
2023-04-28T04:55:13.777Z,994.88
2023-04-28T04:56:13.861Z,994.89
2023-04-28T04:57:13.776Z,994.92
2023-04-28T04:58:13.714Z,994.95
2023-04-28T04:59:13.755Z,994.94
2023-04-28T05:00:13.621Z,994.96
2023-04-28T05:01:13.517Z,994.93
2023-04-28T05:02:13.753Z,994.90
2023-04-28T05:03:13.894Z,994.90
2023-04-28T05:04:12.995Z,994.90
2023-04-28T05:05:21.359Z,994.91
2023-04-28T05:06:13.164Z,994.95
2023-04-28T05:07:13.069Z,994.97
2023-04-28T05:08:12.967Z,995.00
2023-04-28T05:09:12.968Z,995.00
2023-04-28T05:10:13.132Z,995.00
2023-04-28T05:11:13.325Z,995.10
2023-04-28T05:12:13.339Z,995.09
2023-04-28T05:13:13.249Z,995.09
2023-04-28T05:14:13.591Z,995.14
2023-04-28T05:15:13.532Z,995.15
2023-04-28T05:16:13.649Z,995.18
2023-04-28T05:17:13.536Z,995.21
2023-04-28T05:18:13.425Z,995.20
2023-04-28T05:19:13.614Z,995.21
2023-04-28T05:20:13.551Z,995.22
2023-04-28T05:21:13.456Z,995.21
2023-04-28T05:22:26.444Z,995.17
2023-04-28T05:23:13.552Z,995.16
2023-04-28T05:24:13.482Z,995.14
2023-04-28T05:25:13.550Z,995.14
2023-04-28T05:26:13.444Z,995.09
2023-04-28T05:27:13.395Z,995.11
2023-04-28T05:28:13.464Z,995.07
2023-04-28T05:29:13.471Z,995.12
2023-04-28T05:30:13.326Z,995.06
2023-04-28T05:31:13.520Z,995.06
2023-04-28T05:32:13.541Z,995.02
2023-04-28T05:33:13.625Z,995.00
2023-04-28T05:34:13.728Z,994.98
2023-04-28T05:35:13.763Z,994.98
2023-04-28T05:36:13.652Z,994.97
2023-04-28T05:37:13.731Z,994.92
2023-04-28T05:38:13.800Z,994.91
2023-04-28T05:39:13.806Z,994.95
2023-04-28T05:40:12.903Z,994.98
2023-04-28T05:41:12.839Z,994.93
2023-04-28T05:42:13.728Z,994.89
2023-04-28T05:43:14.156Z,994.91
2023-04-28T05:44:13.167Z,994.92
2023-04-28T05:45:13.336Z,994.83
2023-04-28T05:46:28.433Z,994.83
2023-04-28T05:47:13.419Z,994.84
2023-04-28T05:48:13.262Z,994.83
2023-04-28T05:49:13.554Z,994.83
2023-04-28T05:50:13.445Z,994.82
2023-04-28T05:51:13.544Z,994.78
2023-04-28T05:52:13.622Z,994.72
2023-04-28T05:53:13.748Z,994.69
2023-04-28T05:54:14.008Z,994.67
2023-04-28T05:55:12.980Z,994.67
2023-04-28T05:56:12.892Z,994.67
2023-04-28T05:57:13.063Z,994.68
2023-04-28T05:58:13.484Z,994.69
2023-04-28T05:59:13.647Z,994.65
2023-04-28T06:00:13.657Z,994.66
2023-04-28T06:01:13.557Z,994.62
2023-04-28T06:02:13.659Z,994.55
2023-04-28T06:03:13.793Z,994.49
2023-04-28T06:04:13.273Z,994.45
2023-04-28T06:05:13.873Z,994.48
2023-04-28T06:06:13.371Z,994.49
2023-04-28T06:07:13.942Z,994.52
2023-04-28T06:08:13.142Z,994.53
2023-04-28T06:09:13.530Z,994.51
2023-04-28T06:10:13.531Z,994.47
2023-04-28T06:11:13.929Z,994.48
2023-04-28T06:12:13.032Z,994.50
2023-04-28T06:13:14.474Z,994.52
2023-04-28T06:14:13.848Z,994.54
2023-04-28T06:15:13.908Z,994.60
2023-04-28T06:16:13.085Z,994.54
2023-04-28T06:17:13.143Z,994.54
2023-04-28T06:18:13.154Z,994.55
2023-04-28T06:19:13.050Z,994.56
2023-04-28T06:20:18.299Z,994.55
2023-04-28T06:21:13.214Z,994.53
2023-04-28T06:22:13.139Z,994.58
2023-04-28T06:23:13.144Z,994.59
2023-04-28T06:24:13.403Z,994.57
2023-04-28T06:25:13.418Z,994.61
2023-04-28T06:26:13.236Z,994.63
2023-04-28T06:27:13.265Z,994.57
2023-04-28T06:28:13.746Z,994.59
2023-04-28T06:29:13.866Z,994.54
2023-04-28T06:30:13.834Z,994.51
2023-04-28T06:31:13.901Z,994.53
2023-04-28T06:32:12.896Z,994.56
2023-04-28T06:33:13.054Z,994.52
2023-04-28T06:34:12.897Z,994.52
2023-04-28T06:35:13.152Z,994.53
2023-04-28T06:36:12.998Z,994.52
2023-04-28T06:37:12.995Z,994.53
2023-04-28T06:38:13.181Z,994.41
2023-04-28T06:39:13.353Z,994.43
2023-04-28T06:40:13.579Z,994.40
2023-04-28T06:41:13.937Z,994.39
2023-04-28T06:42:13.157Z,994.43
2023-04-28T06:43:13.055Z,994.38
2023-04-28T06:44:12.891Z,994.40
2023-04-28T06:45:13.032Z,994.40
2023-04-28T06:46:13.120Z,994.41
2023-04-28T06:47:13.344Z,994.36
2023-04-28T06:48:13.324Z,994.40
2023-04-28T06:49:13.735Z,994.33
2023-04-28T06:50:13.930Z,994.27
2023-04-28T06:51:13.254Z,994.25
2023-04-28T06:52:13.250Z,994.24
2023-04-28T06:53:13.536Z,994.22
2023-04-28T06:54:13.656Z,994.20
2023-04-28T06:55:13.683Z,994.22
2023-04-28T06:56:15.094Z,994.18
2023-04-28T06:57:18.162Z,994.16
2023-04-28T06:58:13.583Z,994.18
2023-04-28T06:59:13.706Z,994.14
2023-04-28T07:00:13.952Z,994.22
2023-04-28T07:01:12.901Z,994.23
2023-04-28T07:02:12.803Z,994.25
2023-04-28T07:03:13.921Z,994.23
2023-04-28T07:04:13.041Z,994.22
2023-04-28T07:05:15.484Z,994.22
2023-04-28T07:06:13.521Z,994.25
2023-04-28T07:07:13.505Z,994.26
2023-04-28T07:08:13.555Z,994.30
2023-04-28T07:09:13.893Z,994.32
2023-04-28T07:10:13.100Z,994.33
2023-04-28T07:11:13.145Z,994.30
2023-04-28T07:12:13.361Z,994.34
2023-04-28T07:13:13.807Z,994.36
2023-04-28T07:14:13.833Z,994.35
2023-04-28T07:15:13.016Z,994.35
2023-04-28T07:16:13.043Z,994.31
2023-04-28T07:17:13.301Z,994.28
2023-04-28T07:18:13.488Z,994.21
2023-04-28T07:19:13.418Z,994.20
2023-04-28T07:20:13.451Z,994.18
2023-04-28T07:21:13.681Z,994.17
2023-04-28T07:22:13.582Z,994.15
2023-04-28T07:23:13.592Z,994.13
2023-04-28T07:24:13.788Z,994.05
2023-04-28T07:25:13.025Z,994.06
2023-04-28T07:26:14.799Z,994.09
2023-04-28T07:27:13.868Z,994.11
2023-04-28T07:28:13.813Z,994.16
2023-04-28T07:29:13.727Z,994.16
2023-04-28T07:30:25.617Z,994.18
2023-04-28T07:31:13.011Z,994.18
2023-04-28T07:32:32.843Z,994.15
2023-04-28T07:33:13.733Z,994.16
2023-04-28T07:34:14.126Z,994.17
2023-04-28T07:35:13.399Z,994.17
2023-04-28T07:36:13.628Z,994.16
2023-04-28T07:37:13.575Z,994.10
2023-04-28T07:38:13.740Z,994.14
2023-04-28T07:39:13.913Z,994.12
2023-04-28T07:40:12.775Z,994.12
2023-04-28T07:41:14.252Z,994.17
2023-04-28T07:42:13.269Z,994.15
2023-04-28T07:43:13.224Z,994.18
2023-04-28T07:44:13.336Z,994.18
2023-04-28T07:45:13.588Z,994.19
2023-04-28T07:46:13.892Z,994.25
2023-04-28T07:47:12.880Z,994.23
2023-04-28T07:48:13.876Z,994.24
2023-04-28T07:49:13.226Z,994.24
2023-04-28T07:50:13.173Z,994.24
2023-04-28T07:51:13.141Z,994.24
2023-04-28T07:52:13.219Z,994.23
2023-04-28T07:53:13.270Z,994.19
2023-04-28T07:54:13.224Z,994.22
2023-04-28T07:55:13.549Z,994.17
2023-04-28T07:56:13.431Z,994.17
2023-04-28T07:57:13.783Z,994.17
2023-04-28T07:58:13.874Z,994.18
2023-04-28T07:59:13.037Z,994.24
2023-04-28T08:00:12.976Z,994.22
2023-04-28T08:01:13.002Z,994.22
2023-04-28T08:02:13.072Z,994.23
2023-04-28T08:03:13.614Z,994.21
2023-04-28T08:04:14.504Z,994.24
2023-04-28T08:05:13.457Z,994.26
2023-04-28T08:06:13.577Z,994.25
2023-04-28T08:07:13.611Z,994.28
2023-04-28T08:08:13.474Z,994.27
2023-04-28T08:09:13.442Z,994.28
2023-04-28T08:10:13.568Z,994.25
2023-04-28T08:11:13.441Z,994.27
2023-04-28T08:12:13.668Z,994.23
2023-04-28T08:13:13.555Z,994.25
2023-04-28T08:14:13.488Z,994.26
2023-04-28T08:15:13.602Z,994.24
2023-04-28T08:16:13.660Z,994.25
2023-04-28T08:17:13.763Z,994.24
2023-04-28T08:18:13.729Z,994.27
2023-04-28T08:19:13.560Z,994.27
2023-04-28T08:20:13.958Z,994.32
2023-04-28T08:21:12.816Z,994.30
2023-04-28T08:22:13.993Z,994.31
2023-04-28T08:23:13.331Z,994.32
2023-04-28T08:24:13.860Z,994.38
2023-04-28T08:25:12.954Z,994.35
2023-04-28T08:26:12.834Z,994.32
2023-04-28T08:27:13.864Z,994.31
2023-04-28T08:28:13.860Z,994.28
2023-04-28T08:29:13.907Z,994.28
2023-04-28T08:30:12.909Z,994.24
2023-04-28T08:31:12.865Z,994.27
2023-04-28T08:32:12.886Z,994.24
2023-04-28T08:33:14.138Z,994.22
2023-04-28T08:34:17.975Z,994.30
2023-04-28T08:35:18.270Z,994.30
2023-04-28T08:36:13.614Z,994.28
2023-04-28T08:37:14.191Z,994.30
2023-04-28T08:38:13.242Z,994.29
2023-04-28T08:39:13.734Z,994.33
2023-04-28T08:40:13.825Z,994.33
2023-04-28T08:41:13.907Z,994.30
2023-04-28T08:42:12.988Z,994.26
2023-04-28T08:43:13.177Z,994.29
2023-04-28T08:44:13.151Z,994.28
2023-04-28T08:45:13.096Z,994.31
2023-04-28T08:46:13.177Z,994.27
2023-04-28T08:47:13.075Z,994.28
2023-04-28T08:48:12.987Z,994.25
2023-04-28T08:49:12.939Z,994.22
2023-04-28T08:50:12.981Z,994.25
2023-04-28T08:51:13.150Z,994.22
2023-04-28T08:52:12.992Z,994.20
2023-04-28T08:53:13.028Z,994.18
2023-04-28T08:54:25.534Z,994.15
2023-04-28T08:55:13.612Z,994.17
2023-04-28T08:56:14.019Z,994.11
2023-04-28T08:57:12.997Z,994.11
2023-04-28T08:58:12.913Z,994.07
2023-04-28T08:59:13.637Z,994.07
2023-04-28T09:01:18.228Z,994.02
2023-04-28T09:02:13.492Z,994.07
2023-04-28T09:03:13.818Z,994.06
2023-04-28T09:04:14.580Z,994.07
2023-04-28T09:05:13.263Z,994.10
2023-04-28T09:06:13.259Z,994.15
2023-04-28T09:07:13.618Z,994.09
2023-04-28T09:08:13.584Z,994.05
2023-04-28T09:09:13.438Z,994.06
2023-04-28T09:10:13.702Z,994.06
2023-04-28T09:11:13.567Z,994.07
2023-04-28T09:12:13.720Z,994.05
2023-04-28T09:13:13.736Z,994.01
2023-04-28T09:14:13.888Z,994.05
2023-04-28T09:15:13.003Z,994.07
2023-04-28T09:16:13.018Z,994.03
2023-04-28T09:17:18.142Z,993.98
2023-04-28T09:18:13.107Z,994.05
2023-04-28T09:19:18.144Z,993.97
2023-04-28T09:20:13.423Z,993.99
2023-04-28T09:21:13.661Z,993.98
2023-04-28T09:22:24.628Z,993.92
2023-04-28T09:23:14.121Z,993.93
2023-04-28T09:24:17.941Z,993.92
2023-04-28T09:25:18.685Z,993.92
2023-04-28T09:26:13.663Z,993.98
2023-04-28T09:27:13.928Z,993.90
2023-04-28T09:28:13.187Z,993.94
2023-04-28T09:29:13.139Z,993.87
2023-04-28T09:30:13.241Z,993.89
2023-04-28T09:31:13.657Z,993.93
2023-04-28T09:32:13.537Z,993.87
2023-04-28T09:33:13.826Z,993.89
2023-04-28T09:34:13.988Z,993.95
2023-04-28T09:35:13.211Z,993.95
2023-04-28T09:36:13.470Z,993.98
2023-04-28T09:37:13.514Z,994.00
2023-04-28T09:38:13.561Z,994.03
2023-04-28T09:39:13.940Z,994.00
2023-04-28T09:40:13.005Z,994.02
2023-04-28T09:41:13.075Z,994.04
2023-04-28T09:42:13.164Z,994.06
2023-04-28T09:43:21.276Z,994.05
2023-04-28T09:44:13.315Z,993.98
2023-04-28T09:45:13.695Z,994.03
2023-04-28T09:46:13.726Z,994.05
2023-04-28T09:47:13.676Z,994.02
2023-04-28T09:48:14.069Z,994.03
2023-04-28T09:49:13.286Z,994.03
2023-04-28T09:50:13.239Z,994.01
2023-04-28T09:51:13.353Z,994.03
2023-04-28T09:52:13.607Z,994.00
2023-04-28T09:53:13.510Z,994.01
2023-04-28T09:54:13.671Z,994.04
2023-04-28T09:55:13.948Z,994.06
2023-04-28T09:56:13.218Z,994.03
2023-04-28T09:57:13.152Z,994.01
2023-04-28T09:58:13.065Z,994.00
2023-04-28T09:59:13.125Z,994.06
2023-04-28T10:00:13.300Z,993.99
2023-04-28T10:01:13.703Z,994.02
2023-04-28T10:02:41.157Z,994.03
2023-04-28T10:03:13.311Z,994.02
2023-04-28T10:04:13.821Z,994.03
2023-04-28T10:05:14.618Z,994.06
2023-04-28T10:06:13.797Z,994.02
2023-04-28T10:07:13.839Z,994.03
2023-04-28T10:08:13.927Z,994.04
2023-04-28T10:09:12.854Z,994.02
2023-04-28T10:10:13.954Z,994.03
2023-04-28T10:11:13.168Z,993.95
2023-04-28T10:12:13.188Z,993.97
2023-04-28T10:13:13.165Z,993.95
2023-04-28T10:14:13.380Z,993.97
2023-04-28T10:15:13.359Z,993.98
2023-04-28T10:16:13.858Z,993.96
2023-04-28T10:17:14.023Z,993.94
2023-04-28T10:18:13.062Z,993.92
2023-04-28T10:19:13.153Z,993.89
2023-04-28T10:20:13.166Z,993.93
2023-04-28T10:21:13.475Z,993.91
2023-04-28T10:22:13.713Z,993.88
2023-04-28T10:23:13.827Z,993.89
2023-04-28T10:24:14.058Z,993.86
2023-04-28T10:25:13.259Z,993.84
2023-04-28T10:26:13.233Z,993.84
2023-04-28T10:27:13.435Z,993.84
2023-04-28T10:28:13.826Z,993.85
2023-04-28T10:29:13.951Z,993.81
2023-04-28T10:30:22.945Z,993.77
2023-04-28T10:31:13.307Z,993.81
2023-04-28T10:32:13.452Z,993.81
2023-04-28T10:33:13.893Z,993.79
2023-04-28T10:34:13.231Z,993.75
2023-04-28T10:35:13.590Z,993.77
2023-04-28T10:36:13.649Z,993.76
2023-04-28T10:37:13.326Z,993.76
2023-04-28T10:38:18.300Z,993.77
2023-04-28T10:39:13.391Z,993.78
2023-04-28T10:40:13.358Z,993.71
2023-04-28T10:41:13.654Z,993.77
2023-04-28T10:42:13.998Z,993.77
2023-04-28T10:43:13.196Z,993.76
2023-04-28T10:44:13.683Z,993.81
2023-04-28T10:45:13.788Z,993.77
2023-04-28T10:46:14.010Z,993.77
2023-04-28T10:47:13.342Z,993.80
2023-04-28T10:48:13.630Z,993.75
2023-04-28T10:49:13.876Z,993.79
2023-04-28T10:50:14.116Z,993.80
2023-04-28T10:51:13.260Z,993.75
2023-04-28T10:52:13.306Z,993.78
2023-04-28T10:53:13.345Z,993.75
2023-04-28T10:54:13.375Z,993.70
2023-04-28T10:55:22.178Z,993.77
2023-04-28T10:56:13.780Z,993.74
2023-04-28T10:57:13.840Z,993.78
2023-04-28T10:58:13.884Z,993.85
2023-04-28T10:59:13.224Z,993.82
2023-04-28T11:00:13.498Z,993.77
2023-04-28T11:01:13.598Z,993.79
2023-04-28T11:02:13.749Z,993.74
2023-04-28T11:03:13.964Z,993.80
2023-04-28T11:04:13.378Z,993.79
2023-04-28T11:05:18.827Z,993.78
2023-04-28T11:06:13.234Z,993.80
2023-04-28T11:07:13.565Z,993.73
2023-04-28T11:08:13.549Z,993.77
2023-04-28T11:09:13.678Z,993.78
2023-04-28T11:10:13.778Z,993.79
2023-04-28T11:11:13.664Z,993.76
2023-04-28T11:12:13.599Z,993.75
2023-04-28T11:13:13.696Z,993.71
2023-04-28T11:14:14.024Z,993.67
2023-04-28T11:15:12.966Z,993.74
2023-04-28T11:16:13.487Z,993.72
2023-04-28T11:17:13.943Z,993.75
2023-04-28T11:18:12.837Z,993.73
2023-04-28T11:19:13.814Z,993.72
2023-04-28T11:20:13.793Z,993.74
2023-04-28T11:21:13.950Z,993.72
2023-04-28T11:22:13.247Z,993.76
2023-04-28T11:23:13.415Z,993.79
2023-04-28T11:24:13.358Z,993.79
2023-04-28T11:25:14.861Z,993.82
2023-04-28T11:26:13.913Z,993.82
2023-04-28T11:27:12.904Z,993.88
2023-04-28T11:28:13.090Z,993.86
2023-04-28T11:29:12.951Z,993.93
2023-04-28T11:30:12.982Z,993.91
2023-04-28T11:31:13.394Z,993.91
2023-04-28T11:32:13.575Z,993.88
2023-04-28T11:33:13.540Z,993.88
2023-04-28T11:34:13.589Z,993.90
2023-04-28T11:35:13.831Z,993.91
2023-04-28T11:36:13.869Z,993.92
2023-04-28T11:37:13.964Z,993.99
2023-04-28T11:38:13.176Z,993.98
2023-04-28T11:39:13.253Z,993.96
2023-04-28T11:40:13.501Z,994.02
2023-04-28T11:41:13.740Z,994.02
2023-04-28T11:42:13.680Z,993.98
2023-04-28T11:43:13.492Z,994.04
2023-04-28T11:44:13.570Z,994.00
2023-04-28T11:45:13.565Z,994.03
2023-04-28T11:46:13.631Z,994.00
2023-04-28T11:47:13.959Z,994.02
2023-04-28T11:48:13.011Z,993.96
2023-04-28T11:49:13.155Z,993.97
2023-04-28T11:50:13.067Z,994.00
2023-04-28T11:51:13.114Z,993.98
2023-04-28T11:52:13.671Z,993.98
2023-04-28T11:53:13.800Z,993.99
2023-04-28T11:54:13.662Z,994.00
2023-04-28T11:55:13.647Z,994.04
2023-04-28T11:56:13.624Z,994.01
2023-04-28T11:57:13.686Z,994.00
2023-04-28T11:58:13.771Z,993.98
2023-04-28T11:59:13.701Z,994.00
2023-04-28T12:00:13.678Z,994.01
2023-04-28T12:01:13.570Z,993.99
2023-04-28T12:02:13.682Z,993.99
2023-04-28T12:03:13.700Z,993.97
2023-04-28T12:04:14.167Z,994.03
2023-04-28T12:05:13.740Z,994.05
2023-04-28T12:06:13.697Z,994.02
2023-04-28T12:07:13.709Z,994.00
2023-04-28T12:08:14.009Z,994.05
2023-04-28T12:09:12.902Z,994.01
2023-04-28T12:10:12.989Z,994.02
2023-04-28T12:11:12.872Z,994.03
2023-04-28T12:12:13.787Z,993.98
2023-04-28T12:13:13.920Z,994.01
2023-04-28T12:14:12.890Z,994.02
2023-04-28T12:15:12.787Z,993.99
2023-04-28T12:16:13.915Z,994.00
2023-04-28T12:17:13.084Z,993.96
2023-04-28T12:18:13.049Z,993.95
2023-04-28T12:19:12.971Z,993.97
2023-04-28T12:20:12.989Z,994.01
2023-04-28T12:21:12.913Z,993.96
2023-04-28T12:22:13.133Z,993.99
2023-04-28T12:23:12.974Z,993.97
2023-04-28T12:24:13.051Z,993.99
2023-04-28T12:25:13.090Z,993.97
2023-04-28T12:26:13.514Z,993.97
2023-04-28T12:27:13.641Z,994.00
2023-04-28T12:28:13.991Z,994.00
2023-04-28T12:29:13.075Z,993.99